createdAt,value
2023-05-24T00:00:17.220Z,11.92
2023-05-24T00:01:16.801Z,11.92
2023-05-24T00:02:16.395Z,11.92
2023-05-24T00:03:17.236Z,11.93
2023-05-24T00:04:17.025Z,11.96
2023-05-24T00:05:16.953Z,11.94
2023-05-24T00:06:16.544Z,11.94
2023-05-24T00:07:17.100Z,11.96
2023-05-24T00:08:16.663Z,11.93
2023-05-24T00:09:17.213Z,11.97
2023-05-24T00:10:16.771Z,11.97
2023-05-24T00:11:16.315Z,11.94
2023-05-24T00:12:16.753Z,11.94
2023-05-24T00:13:17.311Z,11.94
2023-05-24T00:14:16.871Z,11.94
2023-05-24T00:15:16.436Z,11.97
2023-05-24T00:16:17.036Z,11.99
2023-05-24T00:17:16.737Z,11.99
2023-05-24T00:18:17.293Z,12.01
2023-05-24T00:19:16.843Z,12.01
2023-05-24T00:20:16.430Z,12.03
2023-05-24T00:21:16.989Z,12.03
2023-05-24T00:22:16.564Z,12.06
2023-05-24T00:23:17.113Z,12.07
2023-05-24T00:24:16.668Z,12.03
2023-05-24T00:25:17.291Z,12.03
2023-05-24T00:26:16.840Z,12.03
2023-05-24T00:27:16.389Z,12.04
2023-05-24T00:28:16.968Z,12.03
2023-05-24T00:29:16.510Z,12.07
2023-05-24T00:30:17.077Z,12.03
2023-05-24T00:31:16.628Z,12.04
2023-05-24T00:32:16.544Z,12.04
2023-05-24T00:33:17.086Z,12.04
2023-05-24T00:34:16.629Z,12.04
2023-05-24T00:35:17.214Z,11.96
2023-05-24T00:36:16.800Z,11.93
2023-05-24T00:37:16.340Z,11.94
2023-05-24T00:38:16.910Z,11.93
2023-05-24T00:39:16.464Z,11.93
2023-05-24T00:40:17.024Z,11.93
2023-05-24T00:41:16.605Z,11.96
2023-05-24T00:42:16.903Z,11.92
2023-05-24T00:43:16.520Z,11.86
2023-05-24T00:44:17.068Z,11.88
2023-05-24T00:45:16.632Z,11.85
2023-05-24T00:46:17.339Z,11.86
2023-05-24T00:47:16.966Z,11.88
2023-05-24T00:48:16.520Z,11.90
2023-05-24T00:49:17.076Z,11.79
2023-05-24T00:50:16.641Z,11.78
2023-05-24T00:51:17.205Z,11.76
2023-05-24T00:52:16.990Z,11.73
2023-05-24T00:53:16.523Z,11.71
2023-05-24T00:54:17.125Z,11.73
2023-05-24T00:55:16.687Z,11.75
2023-05-24T00:56:16.798Z,11.73
2023-05-24T00:57:16.389Z,11.73
2023-05-24T00:58:16.931Z,11.73
2023-05-24T00:59:16.475Z,11.72
2023-05-24T01:00:17.055Z,11.72
2023-05-24T01:01:16.626Z,11.69
2023-05-24T01:02:17.142Z,11.68
2023-05-24T01:03:16.868Z,11.66
2023-05-24T01:04:16.595Z,11.68
2023-05-24T01:05:17.140Z,11.66
2023-05-24T01:06:16.817Z,11.68
2023-05-24T01:07:16.361Z,11.65
2023-05-24T01:08:16.952Z,11.61
2023-05-24T01:09:16.489Z,11.62
2023-05-24T01:10:17.034Z,11.59
2023-05-24T01:11:16.602Z,11.58
2023-05-24T01:12:16.636Z,11.57
2023-05-24T01:13:17.180Z,11.59
2023-05-24T01:14:16.734Z,11.61
2023-05-24T01:15:17.308Z,11.64
2023-05-24T01:16:16.879Z,11.61
2023-05-24T01:17:16.492Z,11.61
2023-05-24T01:18:17.039Z,11.61
2023-05-24T01:19:16.603Z,11.65
2023-05-24T01:20:17.199Z,11.62
2023-05-24T01:21:16.859Z,11.62
2023-05-24T01:22:16.447Z,11.57
2023-05-24T01:23:17.003Z,11.58
2023-05-24T01:24:16.562Z,11.57
2023-05-24T01:25:17.154Z,11.50
2023-05-24T01:26:16.722Z,11.52
2023-05-24T01:27:17.257Z,11.48
2023-05-24T01:28:16.829Z,11.50
2023-05-24T01:29:16.402Z,11.51
2023-05-24T01:30:16.952Z,11.48
2023-05-24T01:31:16.537Z,11.48
2023-05-24T01:32:17.020Z,11.51
2023-05-24T01:33:16.562Z,11.51
2023-05-24T01:34:17.072Z,11.44
2023-05-24T01:35:16.624Z,11.47
2023-05-24T01:36:17.180Z,11.45
2023-05-24T01:37:16.721Z,11.48
2023-05-24T01:38:17.270Z,11.50
2023-05-24T01:39:16.883Z,11.48
2023-05-24T01:40:16.520Z,11.48
2023-05-24T01:41:17.084Z,11.52
2023-05-24T01:42:16.639Z,11.51
2023-05-24T01:43:17.189Z,11.47
2023-05-24T01:44:16.764Z,11.44
2023-05-24T01:45:16.370Z,11.45
2023-05-24T01:46:16.942Z,11.48
2023-05-24T01:47:16.556Z,11.48
2023-05-24T01:48:17.127Z,11.51
2023-05-24T01:49:16.673Z,11.50
2023-05-24T01:50:17.227Z,11.45
2023-05-24T01:51:16.774Z,11.45
2023-05-24T01:52:16.964Z,11.48
2023-05-24T01:53:16.609Z,11.45
2023-05-24T01:54:17.218Z,11.47
2023-05-24T01:55:16.792Z,11.47
2023-05-24T01:56:16.377Z,11.45
2023-05-24T01:57:16.909Z,11.45
2023-05-24T01:58:16.488Z,11.47
2023-05-24T01:59:17.033Z,11.47
2023-05-24T02:00:16.605Z,11.55
2023-05-24T02:01:17.204Z,11.52
2023-05-24T02:02:16.451Z,11.51
2023-05-24T02:03:17.104Z,11.51
2023-05-24T02:04:16.756Z,11.50
2023-05-24T02:05:17.306Z,11.48
2023-05-24T02:06:16.894Z,11.45
2023-05-24T02:07:16.445Z,11.47
2023-05-24T02:08:17.028Z,11.50
2023-05-24T02:09:16.575Z,11.47
2023-05-24T02:10:17.246Z,11.50
2023-05-24T02:11:16.817Z,11.50
2023-05-24T02:12:17.135Z,11.51
2023-05-24T02:13:16.692Z,11.52
2023-05-24T02:14:17.277Z,11.47
2023-05-24T02:15:16.926Z,11.47
2023-05-24T02:16:16.552Z,11.47
2023-05-24T02:17:17.124Z,11.50
2023-05-24T02:18:16.675Z,11.48
2023-05-24T02:19:17.229Z,11.47
2023-05-24T02:20:17.006Z,11.47
2023-05-24T02:21:16.832Z,11.45
2023-05-24T02:22:16.898Z,11.44
2023-05-24T02:23:16.487Z,11.43
2023-05-24T02:24:17.023Z,11.43
2023-05-24T02:25:16.573Z,11.41
2023-05-24T02:26:17.173Z,11.38
2023-05-24T02:27:16.748Z,11.35
2023-05-24T02:28:17.285Z,11.35
2023-05-24T02:29:16.820Z,11.38
2023-05-24T02:30:16.417Z,11.40
2023-05-24T02:31:17.050Z,11.40
2023-05-24T02:32:16.400Z,11.41
2023-05-24T02:33:17.020Z,11.40
2023-05-24T02:34:16.584Z,11.41
2023-05-24T02:35:17.161Z,11.41
2023-05-24T02:36:16.851Z,11.38
2023-05-24T02:37:16.780Z,11.38
2023-05-24T02:38:16.342Z,11.38
2023-05-24T02:39:16.929Z,11.38
2023-05-24T02:40:16.481Z,11.33
2023-05-24T02:41:17.064Z,11.31
2023-05-24T02:42:16.490Z,11.31
2023-05-24T02:43:17.043Z,11.26
2023-05-24T02:44:16.632Z,11.23
2023-05-24T02:45:17.204Z,11.23
2023-05-24T02:46:16.784Z,11.23
2023-05-24T02:47:16.414Z,11.26
2023-05-24T02:48:16.926Z,11.23
2023-05-24T02:49:16.494Z,11.20
2023-05-24T02:50:17.042Z,11.17
2023-05-24T02:51:16.628Z,11.16
2023-05-24T02:52:17.132Z,11.17
2023-05-24T02:53:16.726Z,11.18
2023-05-24T02:54:16.301Z,11.20
2023-05-24T02:55:16.848Z,11.16
2023-05-24T02:56:16.391Z,11.16
2023-05-24T02:57:16.957Z,11.13
2023-05-24T02:58:16.553Z,11.11
2023-05-24T02:59:17.108Z,11.10
2023-05-24T03:00:16.670Z,11.10
2023-05-24T03:01:17.280Z,11.09
2023-05-24T03:02:16.622Z,11.07
2023-05-24T03:03:17.222Z,11.02
2023-05-24T03:04:16.960Z,11.00
2023-05-24T03:05:16.497Z,11.02
2023-05-24T03:06:17.067Z,11.02
2023-05-24T03:07:16.646Z,10.99
2023-05-24T03:08:17.183Z,10.93
2023-05-24T03:09:16.766Z,10.99
2023-05-24T03:10:16.321Z,10.98
2023-05-24T03:11:16.888Z,10.95
2023-05-24T03:12:16.542Z,10.93
2023-05-24T03:13:17.123Z,10.96
2023-05-24T03:14:16.702Z,10.92
2023-05-24T03:15:17.249Z,10.93
2023-05-24T03:16:16.853Z,10.95
2023-05-24T03:17:16.625Z,10.95
2023-05-24T03:18:17.186Z,10.95
2023-05-24T03:19:16.790Z,10.92
2023-05-24T03:20:16.382Z,10.90
2023-05-24T03:21:17.022Z,10.92
2023-05-24T03:22:16.361Z,10.90
2023-05-24T03:23:16.981Z,10.89
2023-05-24T03:24:16.527Z,10.92
2023-05-24T03:25:17.114Z,10.93
2023-05-24T03:26:16.651Z,10.93
2023-05-24T03:27:17.256Z,10.93
2023-05-24T03:28:16.801Z,10.90
2023-05-24T03:29:16.388Z,10.90
2023-05-24T03:30:16.958Z,10.89
2023-05-24T03:31:16.579Z,10.88
2023-05-24T03:32:16.470Z,10.89
2023-05-24T03:33:17.025Z,10.86
2023-05-24T03:34:16.575Z,10.86
2023-05-24T03:35:17.117Z,10.85
2023-05-24T03:36:16.667Z,10.82
2023-05-24T03:37:17.229Z,10.83
2023-05-24T03:38:16.795Z,10.83
2023-05-24T03:39:16.392Z,10.85
2023-05-24T03:40:16.968Z,10.83
2023-05-24T03:41:16.518Z,10.82
2023-05-24T03:42:17.147Z,10.83
2023-05-24T03:43:16.712Z,10.79
2023-05-24T03:44:17.264Z,10.79
2023-05-24T03:45:21.629Z,10.79
2023-05-24T03:46:17.248Z,10.82
2023-05-24T03:47:16.941Z,10.82
2023-05-24T03:48:16.495Z,10.83
2023-05-24T03:49:17.120Z,10.88
2023-05-24T03:50:16.685Z,10.88
2023-05-24T03:51:17.247Z,10.90
2023-05-24T03:52:16.713Z,10.93
2023-05-24T03:53:17.250Z,10.95
2023-05-24T03:54:16.990Z,10.96
2023-05-24T03:55:16.529Z,10.93
2023-05-24T03:56:17.046Z,10.92
2023-05-24T03:57:16.593Z,10.95
2023-05-24T03:58:17.132Z,10.90
2023-05-24T03:59:16.709Z,10.89
2023-05-24T04:00:17.276Z,10.86
2023-05-24T04:01:29.579Z,10.90
2023-05-24T04:02:17.031Z,10.90
2023-05-24T04:03:16.769Z,10.90
2023-05-24T04:04:16.539Z,10.96
2023-05-24T04:05:17.281Z,10.93
2023-05-24T04:06:17.639Z,11.02
2023-05-24T04:07:17.286Z,11.00
2023-05-24T04:08:16.833Z,11.00
2023-05-24T04:09:16.375Z,11.00
2023-05-24T04:10:16.949Z,11.00
2023-05-24T04:11:16.518Z,10.98
2023-05-24T04:12:16.986Z,10.96
2023-05-24T04:13:16.548Z,10.96
2023-05-24T04:14:17.096Z,11.00
2023-05-24T04:15:16.649Z,11.10
2023-05-24T04:16:17.207Z,11.10
2023-05-24T04:17:16.948Z,11.13
2023-05-24T04:18:16.831Z,11.14
2023-05-24T04:19:16.518Z,11.14
2023-05-24T04:20:17.076Z,11.14
2023-05-24T04:21:16.715Z,11.10
2023-05-24T04:22:17.311Z,11.06
2023-05-24T04:23:16.853Z,11.03
2023-05-24T04:24:16.424Z,11.04
2023-05-24T04:25:16.977Z,10.98
2023-05-24T04:26:16.610Z,10.93
2023-05-24T04:27:17.209Z,11.03
2023-05-24T04:28:16.782Z,11.07
2023-05-24T04:29:16.355Z,11.09
2023-05-24T04:30:16.948Z,11.17
2023-05-24T04:31:16.679Z,11.20
2023-05-24T04:32:16.861Z,11.26
2023-05-24T04:33:16.411Z,11.30
2023-05-24T04:34:16.972Z,11.31
2023-05-24T04:35:16.555Z,11.34
2023-05-24T04:36:17.202Z,11.31
2023-05-24T04:37:16.719Z,11.43
2023-05-24T04:38:17.544Z,11.44
2023-05-24T04:39:16.938Z,11.45
2023-05-24T04:40:16.493Z,11.47
2023-05-24T04:41:17.054Z,11.50
2023-05-24T04:42:16.720Z,11.38
2023-05-24T04:43:17.327Z,11.40
2023-05-24T04:44:16.861Z,11.44
2023-05-24T04:45:16.433Z,11.31
2023-05-24T04:46:17.003Z,11.28
2023-05-24T04:47:16.620Z,11.33
2023-05-24T04:48:17.196Z,11.27
2023-05-24T04:49:16.724Z,11.35
2023-05-24T04:50:17.272Z,11.43
2023-05-24T04:51:16.803Z,11.51
2023-05-24T04:52:16.697Z,11.55
2023-05-24T04:53:17.288Z,11.59
2023-05-24T04:54:16.845Z,11.52
2023-05-24T04:55:16.411Z,11.44
2023-05-24T04:56:16.985Z,11.34
2023-05-24T04:57:16.576Z,11.40
2023-05-24T04:58:17.159Z,11.38
2023-05-24T04:59:16.760Z,11.38
2023-05-24T05:00:16.319Z,11.45
2023-05-24T05:01:16.918Z,11.48
2023-05-24T05:02:16.429Z,11.40
2023-05-24T05:03:17.071Z,11.10
2023-05-24T05:04:16.846Z,11.21
2023-05-24T05:05:16.376Z,11.21
2023-05-24T05:06:16.896Z,11.28
2023-05-24T05:07:16.458Z,11.31
2023-05-24T05:08:17.100Z,11.35
2023-05-24T05:09:16.652Z,11.14
2023-05-24T05:10:17.213Z,11.00
2023-05-24T05:11:16.766Z,11.13
2023-05-24T05:12:17.321Z,11.20
2023-05-24T05:13:16.869Z,11.30
2023-05-24T05:14:16.414Z,11.41
2023-05-24T05:15:16.966Z,11.45
2023-05-24T05:16:16.530Z,11.37
2023-05-24T05:17:17.146Z,11.40
2023-05-24T05:18:16.755Z,11.47
2023-05-24T05:19:16.354Z,11.54
2023-05-24T05:20:16.952Z,11.51
2023-05-24T05:21:16.670Z,11.55
2023-05-24T05:22:16.967Z,11.58
2023-05-24T05:23:16.554Z,11.58
2023-05-24T05:24:17.130Z,11.62
2023-05-24T05:25:16.679Z,11.64
2023-05-24T05:26:17.239Z,11.66
2023-05-24T05:27:16.800Z,11.65
2023-05-24T05:28:16.343Z,11.71
2023-05-24T05:29:16.901Z,11.31
2023-05-24T05:30:16.468Z,11.43
2023-05-24T05:31:17.077Z,11.54
2023-05-24T05:32:16.765Z,11.55
2023-05-24T05:33:16.576Z,11.54
2023-05-24T05:34:17.299Z,11.61
2023-05-24T05:35:17.000Z,11.64
2023-05-24T05:36:16.670Z,11.69
2023-05-24T05:37:17.252Z,11.75
2023-05-24T05:38:16.834Z,11.79
2023-05-24T05:39:16.443Z,11.83
2023-05-24T05:40:17.177Z,11.85
2023-05-24T05:41:16.862Z,11.83
2023-05-24T05:42:17.109Z,11.86
2023-05-24T05:43:16.625Z,11.85
2023-05-24T05:44:17.235Z,11.88
2023-05-24T05:45:16.817Z,11.88
2023-05-24T05:46:16.412Z,11.78
2023-05-24T05:47:17.066Z,11.79
2023-05-24T05:48:16.651Z,11.85
2023-05-24T05:49:17.229Z,11.51
2023-05-24T05:50:16.818Z,11.64
2023-05-24T05:51:16.400Z,11.62
2023-05-24T05:52:16.817Z,11.71
2023-05-24T05:53:16.369Z,11.85
2023-05-24T05:54:16.920Z,11.92
2023-05-24T05:55:16.518Z,11.88
2023-05-24T05:56:17.055Z,11.92
2023-05-24T05:57:16.609Z,11.68
2023-05-24T05:58:17.171Z,11.64
2023-05-24T05:59:16.736Z,11.64
2023-05-24T06:00:17.343Z,11.69
2023-05-24T06:01:16.903Z,11.76
2023-05-24T06:02:16.961Z,11.86
2023-05-24T06:03:16.750Z,11.99
2023-05-24T06:04:16.670Z,12.04
2023-05-24T06:05:16.387Z,12.13
2023-05-24T06:06:17.176Z,12.16
2023-05-24T06:07:16.720Z,12.13
2023-05-24T06:08:17.278Z,12.07
2023-05-24T06:09:16.823Z,12.07
2023-05-24T06:10:16.431Z,12.08
2023-05-24T06:11:17.037Z,12.04
2023-05-24T06:12:16.331Z,11.93
2023-05-24T06:13:16.878Z,11.89
2023-05-24T06:14:16.482Z,11.83
2023-05-24T06:15:17.080Z,11.88
2023-05-24T06:16:16.705Z,11.71
2023-05-24T06:17:16.355Z,11.68
2023-05-24T06:18:16.950Z,11.78
2023-05-24T06:19:16.525Z,11.86
2023-05-24T06:20:16.430Z,11.90
2023-05-24T06:21:17.048Z,11.62
2023-05-24T06:22:17.089Z,11.72
2023-05-24T06:23:16.634Z,11.78
2023-05-24T06:24:17.189Z,11.79
2023-05-24T06:25:16.724Z,11.88
2023-05-24T06:26:17.265Z,11.94
2023-05-24T06:27:16.877Z,11.97
2023-05-24T06:28:16.437Z,11.97
2023-05-24T06:29:17.001Z,11.93
2023-05-24T06:30:16.597Z,11.96
2023-05-24T06:31:17.226Z,11.96
2023-05-24T06:32:16.432Z,11.82
2023-05-24T06:33:16.988Z,11.27
2023-05-24T06:34:16.574Z,11.35
2023-05-24T06:35:17.124Z,11.54
2023-05-24T06:36:16.695Z,11.48
2023-05-24T06:37:17.241Z,11.50
2023-05-24T06:38:16.829Z,11.57
2023-05-24T06:39:16.401Z,11.62
2023-05-24T06:40:17.085Z,11.44
2023-05-24T06:41:16.647Z,11.48
2023-05-24T06:42:16.598Z,11.13
2023-05-24T06:43:17.166Z,11.06
2023-05-24T06:44:16.793Z,11.07
2023-05-24T06:45:16.384Z,11.00
2023-05-24T06:46:16.946Z,11.10
2023-05-24T06:47:16.669Z,11.13
2023-05-24T06:48:16.495Z,11.27
2023-05-24T06:49:17.319Z,11.38
2023-05-24T06:50:16.890Z,11.44
2023-05-24T06:51:16.461Z,11.58
2023-05-24T06:52:16.839Z,11.41
2023-05-24T06:53:16.393Z,11.52
2023-05-24T06:54:16.975Z,11.69
2023-05-24T06:55:16.536Z,11.68
2023-05-24T06:56:17.079Z,11.66
2023-05-24T06:57:16.637Z,11.72
2023-05-24T06:58:17.201Z,11.85
2023-05-24T06:59:16.773Z,11.96
2023-05-24T07:00:16.372Z,11.92
2023-05-24T07:01:16.989Z,11.76
2023-05-24T07:02:17.240Z,11.83
2023-05-24T07:03:16.824Z,11.90
2023-05-24T07:04:16.386Z,11.85
2023-05-24T07:05:17.081Z,11.94
2023-05-24T07:06:16.607Z,11.94
2023-05-24T07:07:17.187Z,12.00
2023-05-24T07:08:16.730Z,12.10
2023-05-24T07:09:16.478Z,12.20
2023-05-24T07:10:17.023Z,12.31
2023-05-24T07:11:16.652Z,12.32
2023-05-24T07:12:16.761Z,12.53
2023-05-24T07:13:17.300Z,12.62
2023-05-24T07:14:16.877Z,12.75
2023-05-24T07:15:16.471Z,12.53
2023-05-24T07:16:17.045Z,12.62
2023-05-24T07:17:16.706Z,12.83
2023-05-24T07:18:16.469Z,12.68
2023-05-24T07:19:17.038Z,12.21
2023-05-24T07:20:16.618Z,12.25
2023-05-24T07:21:16.348Z,12.31
2023-05-24T07:22:16.564Z,12.48
2023-05-24T07:23:17.132Z,12.55
2023-05-24T07:24:16.748Z,12.72
2023-05-24T07:25:16.661Z,12.72
2023-05-24T07:26:17.251Z,12.66
2023-05-24T07:27:16.800Z,12.69
2023-05-24T07:28:16.391Z,12.70
2023-05-24T07:29:16.943Z,12.60
2023-05-24T07:30:30.878Z,12.70
2023-05-24T07:31:17.196Z,12.59
2023-05-24T07:32:16.598Z,12.53
2023-05-24T07:33:16.379Z,12.56
2023-05-24T07:34:17.199Z,12.38
2023-05-24T07:35:16.758Z,12.13
2023-05-24T07:36:17.341Z,12.12
2023-05-24T07:37:16.980Z,12.07
2023-05-24T07:38:16.546Z,11.93
2023-05-24T07:39:17.097Z,11.80
2023-05-24T07:40:16.681Z,11.75
2023-05-24T07:41:17.269Z,11.78
2023-05-24T07:42:16.625Z,11.72
2023-05-24T07:43:17.170Z,11.86
2023-05-24T07:44:16.699Z,11.97
2023-05-24T07:45:17.308Z,12.16
2023-05-24T07:46:16.968Z,12.24
2023-05-24T07:47:16.594Z,12.12
2023-05-24T07:48:17.169Z,11.93
2023-05-24T07:49:16.842Z,11.90
2023-05-24T07:50:16.414Z,11.96
2023-05-24T07:51:16.976Z,12.12
2023-05-24T07:52:16.538Z,12.14
2023-05-24T07:53:17.086Z,11.97
2023-05-24T07:54:16.692Z,11.97
2023-05-24T07:55:17.260Z,11.65
2023-05-24T07:56:16.810Z,11.54
2023-05-24T07:57:16.352Z,11.75
2023-05-24T07:58:16.913Z,11.78
2023-05-24T07:59:16.502Z,11.57
2023-05-24T08:00:17.065Z,11.41
2023-05-24T08:01:16.631Z,11.34
2023-05-24T08:02:16.588Z,11.45
2023-05-24T08:03:17.342Z,11.59
2023-05-24T08:04:17.216Z,11.66
2023-05-24T08:05:16.940Z,11.69
2023-05-24T08:06:16.573Z,11.33
2023-05-24T08:07:17.121Z,11.47
2023-05-24T08:08:16.717Z,11.54
2023-05-24T08:09:17.312Z,11.55
2023-05-24T08:10:16.861Z,11.66
2023-05-24T08:11:16.412Z,11.76
2023-05-24T08:12:17.248Z,11.71
2023-05-24T08:13:17.013Z,11.59
2023-05-24T08:14:16.592Z,11.38
2023-05-24T08:15:17.147Z,11.38
2023-05-24T08:16:16.731Z,11.55
2023-05-24T08:17:16.362Z,11.35
2023-05-24T08:18:16.930Z,11.37
2023-05-24T08:19:16.502Z,11.37
2023-05-24T08:20:17.131Z,11.43
2023-05-24T08:21:16.828Z,11.43
2023-05-24T08:22:17.079Z,11.52
2023-05-24T08:23:16.627Z,11.65
2023-05-24T08:24:17.193Z,11.78
2023-05-24T08:25:16.752Z,11.76
2023-05-24T08:26:16.311Z,11.66
2023-05-24T08:27:16.833Z,11.73
2023-05-24T08:28:16.400Z,11.78
2023-05-24T08:29:16.997Z,11.73
2023-05-24T08:30:16.548Z,11.82
2023-05-24T08:31:17.213Z,11.85
2023-05-24T08:32:16.681Z,11.85
2023-05-24T08:33:16.376Z,11.76
2023-05-24T08:34:17.014Z,11.79
2023-05-24T08:35:20.028Z,11.83
2023-05-24T08:36:16.433Z,11.90
2023-05-24T08:37:17.000Z,11.85
2023-05-24T08:38:16.555Z,11.71
2023-05-24T08:39:17.308Z,11.65
2023-05-24T08:40:16.858Z,11.75
2023-05-24T08:41:16.448Z,11.79
2023-05-24T08:42:17.242Z,11.90
2023-05-24T08:43:16.776Z,11.90
2023-05-24T08:44:16.349Z,11.90
2023-05-24T08:45:16.931Z,11.94
2023-05-24T08:46:16.565Z,12.00
2023-05-24T08:47:17.274Z,11.89
2023-05-24T08:48:16.888Z,11.82
2023-05-24T08:49:16.671Z,11.83
2023-05-24T08:50:17.230Z,11.86
2023-05-24T08:51:16.852Z,11.92
2023-05-24T08:52:16.762Z,11.99
2023-05-24T08:53:16.321Z,11.78
2023-05-24T08:54:16.883Z,11.72
2023-05-24T08:55:16.433Z,11.78
2023-05-24T08:56:17.013Z,11.65
2023-05-24T08:57:16.563Z,11.71
2023-05-24T08:58:17.096Z,11.80
2023-05-24T08:59:16.620Z,11.89
2023-05-24T09:00:17.213Z,11.94
2023-05-24T09:01:16.831Z,11.97
2023-05-24T09:02:17.290Z,12.03
2023-05-24T09:03:17.037Z,12.04
2023-05-24T09:04:16.782Z,12.00
2023-05-24T09:05:16.473Z,11.90
2023-05-24T09:06:17.062Z,12.00
2023-05-24T09:07:16.640Z,12.06
2023-05-24T09:08:17.266Z,12.03
2023-05-24T09:09:16.786Z,12.01
2023-05-24T09:10:16.333Z,12.03
2023-05-24T09:11:17.075Z,12.03
2023-05-24T09:12:19.311Z,12.13
2023-05-24T09:13:16.424Z,12.13
2023-05-24T09:14:16.977Z,12.12
2023-05-24T09:15:16.514Z,12.13
2023-05-24T09:16:17.122Z,12.13
2023-05-24T09:17:16.877Z,12.17
2023-05-24T09:18:16.529Z,12.17
2023-05-24T09:19:17.265Z,12.27
2023-05-24T09:20:16.868Z,12.27
2023-05-24T09:21:16.600Z,12.35
2023-05-24T09:22:16.817Z,12.44
2023-05-24T09:23:16.348Z,12.45
2023-05-24T09:24:16.899Z,12.45
2023-05-24T09:25:16.441Z,12.47
2023-05-24T09:26:16.979Z,12.52
2023-05-24T09:27:16.527Z,12.52
2023-05-24T09:28:17.122Z,12.63
2023-05-24T09:29:16.697Z,12.70
2023-05-24T09:30:17.312Z,12.73
2023-05-24T09:31:17.077Z,12.70
2023-05-24T09:32:16.898Z,12.77
2023-05-24T09:33:16.511Z,12.83
2023-05-24T09:34:17.212Z,12.65
2023-05-24T09:35:16.790Z,12.69
2023-05-24T09:36:16.327Z,12.83
2023-05-24T09:37:16.938Z,12.79
2023-05-24T09:38:16.526Z,12.87
2023-05-24T09:39:17.073Z,12.99
2023-05-24T09:40:16.681Z,12.96
2023-05-24T09:41:17.252Z,13.10
2023-05-24T09:42:16.613Z,13.24
2023-05-24T09:43:17.187Z,13.28
2023-05-24T09:44:16.822Z,13.39
2023-05-24T09:45:16.386Z,13.52
2023-05-24T09:46:16.995Z,13.58
2023-05-24T09:47:16.711Z,13.75
2023-05-24T09:48:16.402Z,13.30
2023-05-24T09:49:17.028Z,13.30
2023-05-24T09:50:16.695Z,13.55
2023-05-24T09:51:16.523Z,13.69
2023-05-24T09:52:16.821Z,13.79
2023-05-24T09:53:16.368Z,13.84
2023-05-24T09:54:16.920Z,13.97
2023-05-24T09:55:16.506Z,14.05
2023-05-24T09:56:17.119Z,14.18
2023-05-24T09:57:16.767Z,14.10
2023-05-24T09:58:16.328Z,14.24
2023-05-24T09:59:16.878Z,14.38
2023-05-24T10:00:16.665Z,14.56
2023-05-24T10:01:16.649Z,14.65
2023-05-24T10:02:17.299Z,14.80
2023-05-24T10:03:16.886Z,15.07
2023-05-24T10:04:16.675Z,15.17
2023-05-24T10:05:16.422Z,15.27
2023-05-24T10:06:16.981Z,15.12
2023-05-24T10:07:16.560Z,15.23
2023-05-24T10:08:17.124Z,15.39
2023-05-24T10:09:16.714Z,15.49
2023-05-24T10:10:17.273Z,15.60
2023-05-24T10:11:16.852Z,15.69
2023-05-24T10:12:16.535Z,15.81
2023-05-24T10:13:17.107Z,15.88
2023-05-24T10:14:16.674Z,15.97
2023-05-24T10:15:17.275Z,16.07
2023-05-24T10:16:16.879Z,16.18
2023-05-24T10:17:16.501Z,16.17
2023-05-24T10:18:17.108Z,16.45
2023-05-24T10:19:16.747Z,16.62
2023-05-24T10:20:17.344Z,16.78
2023-05-24T10:21:17.032Z,17.29
2023-05-24T10:22:17.275Z,17.43
2023-05-24T10:23:16.862Z,17.02
2023-05-24T10:24:16.419Z,17.18
2023-05-24T10:25:16.980Z,17.16
2023-05-24T10:26:16.508Z,17.16
2023-05-24T10:27:17.085Z,17.50
2023-05-24T10:28:16.668Z,17.36
2023-05-24T10:29:16.413Z,17.42
2023-05-24T10:30:17.106Z,17.47
2023-05-24T10:31:16.690Z,17.47
2023-05-24T10:32:17.204Z,17.88
2023-05-24T10:33:16.838Z,18.08
2023-05-24T10:34:16.423Z,18.27
2023-05-24T10:35:17.005Z,18.27
2023-05-24T10:36:16.567Z,17.94
2023-05-24T10:37:17.158Z,18.05
2023-05-24T10:38:16.917Z,18.12
2023-05-24T10:39:16.536Z,18.36
2023-05-24T10:40:17.237Z,18.08
2023-05-24T10:41:16.901Z,18.13
2023-05-24T10:42:16.747Z,17.80
2023-05-24T10:43:17.306Z,17.98
2023-05-24T10:44:16.846Z,18.05
2023-05-24T10:45:16.391Z,17.80
2023-05-24T10:46:16.963Z,17.19
2023-05-24T10:47:16.569Z,17.39
2023-05-24T10:48:17.244Z,17.82
2023-05-24T10:49:16.892Z,17.92
2023-05-24T10:50:16.444Z,17.87
2023-05-24T10:51:16.999Z,17.77
2023-05-24T10:52:16.567Z,17.57
2023-05-24T10:53:17.129Z,17.95
2023-05-24T10:54:16.703Z,18.11
2023-05-24T10:55:17.303Z,17.98
2023-05-24T10:56:16.875Z,17.91
2023-05-24T10:57:16.453Z,18.09
2023-05-24T10:58:17.028Z,18.42
2023-05-24T10:59:16.577Z,18.82
2023-05-24T11:00:23.676Z,18.94
2023-05-24T11:01:16.624Z,18.99
2023-05-24T11:02:16.855Z,18.77
2023-05-24T11:03:16.639Z,18.53
2023-05-24T11:04:17.282Z,18.44
2023-05-24T11:05:16.900Z,18.50
2023-05-24T11:06:16.512Z,19.14
2023-05-24T11:07:17.074Z,19.29
2023-05-24T11:08:16.655Z,19.23
2023-05-24T11:09:17.251Z,19.48
2023-05-24T11:10:16.840Z,19.44
2023-05-24T11:11:24.980Z,19.41
2023-05-24T11:12:16.753Z,19.72
2023-05-24T11:13:17.306Z,19.10
2023-05-24T11:14:16.889Z,19.86
2023-05-24T11:15:16.449Z,19.29
2023-05-24T11:16:17.021Z,19.86
2023-05-24T11:17:16.651Z,20.64
2023-05-24T11:18:17.254Z,20.30
2023-05-24T11:19:17.029Z,20.74
2023-05-24T11:20:16.671Z,20.88
2023-05-24T11:21:16.340Z,19.43
2023-05-24T11:22:16.543Z,19.84
2023-05-24T11:23:17.113Z,20.78
2023-05-24T11:24:16.685Z,21.45
2023-05-24T11:25:17.279Z,21.81
2023-05-24T11:26:16.851Z,22.17
2023-05-24T11:27:16.402Z,22.03
2023-05-24T11:28:16.980Z,21.43
2023-05-24T11:29:16.632Z,21.65
2023-05-24T11:30:17.225Z,19.69
2023-05-24T11:31:16.815Z,19.44
2023-05-24T11:32:17.158Z,20.16
2023-05-24T11:33:16.876Z,20.34
2023-05-24T11:34:16.597Z,20.23
2023-05-24T11:35:17.163Z,20.27
2023-05-24T11:36:16.741Z,20.15
2023-05-24T11:37:18.166Z,20.37
2023-05-24T11:38:16.479Z,19.17
2023-05-24T11:39:17.085Z,18.19
2023-05-24T11:40:16.808Z,18.17
2023-05-24T11:41:16.390Z,18.08
2023-05-24T11:42:16.859Z,18.74
2023-05-24T11:43:16.834Z,19.58
2023-05-24T11:44:16.472Z,19.69
2023-05-24T11:45:17.032Z,19.78
2023-05-24T11:46:16.602Z,19.96
2023-05-24T11:47:17.245Z,19.37
2023-05-24T11:48:16.847Z,19.12
2023-05-24T11:49:16.636Z,19.01
2023-05-24T11:50:17.217Z,19.01
2023-05-24T11:51:16.827Z,19.14
2023-05-24T11:52:17.180Z,18.74
2023-05-24T11:53:16.740Z,18.32
2023-05-24T11:54:16.326Z,18.63
2023-05-24T11:55:16.972Z,18.91
2023-05-24T11:56:16.698Z,18.29
2023-05-24T11:57:17.258Z,18.29
2023-05-24T11:58:16.805Z,18.43
2023-05-24T11:59:16.574Z,17.27
2023-05-24T12:00:17.157Z,17.05
2023-05-24T12:01:16.754Z,17.18
2023-05-24T12:02:16.336Z,17.01
2023-05-24T12:03:17.166Z,17.42
2023-05-24T12:04:17.092Z,17.63
2023-05-24T12:05:16.795Z,17.67
2023-05-24T12:06:16.407Z,16.87
2023-05-24T12:07:16.977Z,16.78
2023-05-24T12:08:16.566Z,17.11
2023-05-24T12:09:17.177Z,17.44
2023-05-24T12:10:16.833Z,17.26
2023-05-24T12:11:16.402Z,16.52
2023-05-24T12:12:16.865Z,16.84
2023-05-24T12:13:16.441Z,17.07
2023-05-24T12:14:17.003Z,17.23
2023-05-24T12:15:16.592Z,17.54
2023-05-24T12:16:17.226Z,17.66
2023-05-24T12:17:16.912Z,17.70
2023-05-24T12:18:16.613Z,17.81
2023-05-24T12:19:31.347Z,17.66
2023-05-24T12:20:16.561Z,17.56
2023-05-24T12:21:17.224Z,17.25
2023-05-24T12:22:16.499Z,17.25
2023-05-24T12:23:17.035Z,17.40
2023-05-24T12:24:16.599Z,17.64
2023-05-24T12:25:17.159Z,17.61
2023-05-24T12:26:16.720Z,17.49
2023-05-24T12:27:17.294Z,16.90
2023-05-24T12:28:16.882Z,17.30
2023-05-24T12:29:16.426Z,17.36
2023-05-24T12:30:16.962Z,17.11
2023-05-24T12:31:16.558Z,17.46
2023-05-24T12:32:17.213Z,17.44
2023-05-24T12:33:16.792Z,17.50
2023-05-24T12:34:16.377Z,17.49
2023-05-24T12:35:16.977Z,17.44
2023-05-24T12:36:16.609Z,17.35
2023-05-24T12:37:17.169Z,17.36
2023-05-24T12:38:16.744Z,17.39
2023-05-24T12:39:17.322Z,17.44
2023-05-24T12:40:16.888Z,17.46
2023-05-24T12:41:16.451Z,17.18
2023-05-24T12:42:16.742Z,17.27
2023-05-24T12:43:17.289Z,17.04
2023-05-24T12:44:16.871Z,17.23
2023-05-24T12:45:16.434Z,17.32
2023-05-24T12:46:17.007Z,17.05
2023-05-24T12:47:16.707Z,16.83
2023-05-24T12:48:16.498Z,17.01
2023-05-24T12:49:17.144Z,17.07
2023-05-24T12:50:16.723Z,17.01
2023-05-24T12:51:17.280Z,16.75
2023-05-24T12:52:16.687Z,16.81